sensor_id;sensor_type;location;lat;lon;timestamp;P1;durP1;ratioP1;P2;durP2;ratioP2
64868;SDS011;51349;52.424;10.840;2022-08-19T00:03:57;14.40;;;10.43;;
64868;SDS011;51349;52.424;10.840;2022-08-19T00:08:59;11.90;;;10.63;;
64868;SDS011;51349;52.424;10.840;2022-08-19T00:14:00;10.90;;;9.90;;
64868;SDS011;51349;52.424;10.840;2022-08-19T00:19:04;11.35;;;10.23;;
64868;SDS011;51349;52.424;10.840;2022-08-19T00:24:06;9.90;;;8.98;;
64868;SDS011;51349;52.424;10.840;2022-08-19T00:29:09;11.55;;;10.48;;
64868;SDS011;51349;52.424;10.840;2022-08-19T00:34:11;11.70;;;10.60;;
64868;SDS011;51349;52.424;10.840;2022-08-19T00:39:14;12.52;;;10.70;;
64868;SDS011;51349;52.424;10.840;2022-08-19T00:44:17;11.23;;;10.32;;
64868;SDS011;51349;52.424;10.840;2022-08-19T00:49:35;13.02;;;11.10;;
64868;SDS011;51349;52.424;10.840;2022-08-19T00:54:37;11.65;;;10.57;;
64868;SDS011;51349;52.424;10.840;2022-08-19T00:59:39;11.70;;;10.38;;
64868;SDS011;51349;52.424;10.840;2022-08-19T01:04:42;11.07;;;10.05;;
64868;SDS011;51349;52.424;10.840;2022-08-19T01:09:42;11.60;;;10.57;;
64868;SDS011;51349;52.424;10.840;2022-08-19T01:14:43;10.82;;;9.90;;
64868;SDS011;51349;52.424;10.840;2022-08-19T01:19:45;11.95;;;10.63;;
64868;SDS011;51349;52.424;10.840;2022-08-19T01:24:48;12.48;;;10.57;;
64868;SDS011;51349;52.424;10.840;2022-08-19T01:29:49;11.68;;;9.90;;
64868;SDS011;51349;52.424;10.840;2022-08-19T01:34:49;11.52;;;10.27;;
64868;SDS011;51349;52.424;10.840;2022-08-19T01:39:50;12.52;;;11.20;;
64868;SDS011;51349;52.424;10.840;2022-08-19T01:44:50;11.38;;;10.32;;
64868;SDS011;51349;52.424;10.840;2022-08-19T01:49:51;13.55;;;9.90;;
64868;SDS011;51349;52.424;10.840;2022-08-19T01:54:51;11.50;;;10.52;;
64868;SDS011;51349;52.424;10.840;2022-08-19T01:59:52;12.52;;;10.90;;
64868;SDS011;51349;52.424;10.840;2022-08-19T02:04:54;10.55;;;9.73;;
64868;SDS011;51349;52.424;10.840;2022-08-19T02:09:55;10.48;;;9.55;;
64868;SDS011;51349;52.424;10.840;2022-08-19T02:14:55;11.80;;;10.60;;
64868;SDS011;51349;52.424;10.840;2022-08-19T02:19:56;11.00;;;9.70;;
64868;SDS011;51349;52.424;10.840;2022-08-19T02:24:57;10.55;;;9.65;;
64868;SDS011;51349;52.424;10.840;2022-08-19T02:29:57;10.88;;;9.85;;
64868;SDS011;51349;52.424;10.840;2022-08-19T02:34:58;11.75;;;10.77;;
64868;SDS011;51349;52.424;10.840;2022-08-19T02:39:59;11.77;;;10.57;;
64868;SDS011;51349;52.424;10.840;2022-08-19T02:45:00;11.13;;;10.15;;
64868;SDS011;51349;52.424;10.840;2022-08-19T02:50:01;10.57;;;9.63;;
64868;SDS011;51349;52.424;10.840;2022-08-19T02:55:03;11.02;;;9.93;;
64868;SDS011;51349;52.424;10.840;2022-08-19T03:00:07;10.43;;;9.38;;
64868;SDS011;51349;52.424;10.840;2022-08-19T03:05:12;12.18;;;10.05;;
64868;SDS011;51349;52.424;10.840;2022-08-19T03:10:16;10.30;;;9.30;;
64868;SDS011;51349;52.424;10.840;2022-08-19T03:15:16;10.23;;;9.43;;
64868;SDS011;51349;52.424;10.840;2022-08-19T03:20:17;10.43;;;9.25;;
64868;SDS011;51349;52.424;10.840;2022-08-19T03:25:17;10.52;;;9.52;;
64868;SDS011;51349;52.424;10.840;2022-08-19T03:30:18;11.15;;;8.70;;
64868;SDS011;51349;52.424;10.840;2022-08-19T03:35:19;10.57;;;9.68;;
64868;SDS011;51349;52.424;10.840;2022-08-19T03:40:20;10.90;;;9.77;;
64868;SDS011;51349;52.424;10.840;2022-08-19T03:45:20;10.80;;;9.70;;
64868;SDS011;51349;52.424;10.840;2022-08-19T03:50:21;10.50;;;9.23;;
64868;SDS011;51349;52.424;10.840;2022-08-19T03:55:22;10.63;;;9.52;;
64868;SDS011;51349;52.424;10.840;2022-08-19T04:00:22;10.35;;;9.27;;
64868;SDS011;51349;52.424;10.840;2022-08-19T04:05:23;9.80;;;9.00;;
64868;SDS011;51349;52.424;10.840;2022-08-19T04:10:24;10.15;;;9.25;;
64868;SDS011;51349;52.424;10.840;2022-08-19T04:15:25;11.35;;;9.55;;
64868;SDS011;51349;52.424;10.840;2022-08-19T04:20:25;10.45;;;9.43;;
64868;SDS011;51349;52.424;10.840;2022-08-19T04:25:26;9.43;;;8.50;;
64868;SDS011;51349;52.424;10.840;2022-08-19T04:30:26;9.00;;;8.10;;
64868;SDS011;51349;52.424;10.840;2022-08-19T04:35:27;9.68;;;8.68;;
64868;SDS011;51349;52.424;10.840;2022-08-19T04:40:28;9.70;;;8.80;;
64868;SDS011;51349;52.424;10.840;2022-08-19T04:45:47;10.43;;;9.05;;
64868;SDS011;51349;52.424;10.840;2022-08-19T04:50:47;9.00;;;8.23;;
64868;SDS011;51349;52.424;10.840;2022-08-19T04:55:48;10.18;;;8.55;;
64868;SDS011;51349;52.424;10.840;2022-08-19T05:00:49;9.55;;;8.15;;
64868;SDS011;51349;52.424;10.840;2022-08-19T05:05:50;9.57;;;8.70;;
64868;SDS011;51349;52.424;10.840;2022-08-19T05:10:51;8.48;;;7.78;;
64868;SDS011;51349;52.424;10.840;2022-08-19T05:15:55;8.85;;;8.13;;
64868;SDS011;51349;52.424;10.840;2022-08-19T05:20:57;9.35;;;8.45;;
64868;SDS011;51349;52.424;10.840;2022-08-19T05:26:33;9.43;;;8.10;;
64868;SDS011;51349;52.424;10.840;2022-08-19T05:31:35;9.05;;;8.15;;
64868;SDS011;51349;52.424;10.840;2022-08-19T05:36:40;8.05;;;7.45;;
64868;SDS011;51349;52.424;10.840;2022-08-19T05:41:47;7.80;;;7.20;;
64868;SDS011;51349;52.424;10.840;2022-08-19T05:46:49;7.97;;;7.28;;
64868;SDS011;51349;52.424;10.840;2022-08-19T05:51:53;8.20;;;7.57;;
64868;SDS011;51349;52.424;10.840;2022-08-19T05:56:55;8.60;;;7.35;;
64868;SDS011;51349;52.424;10.840;2022-08-19T06:01:56;8.57;;;7.80;;
64868;SDS011;51349;52.424;10.840;2022-08-19T06:06:57;8.10;;;7.40;;
64868;SDS011;51349;52.424;10.840;2022-08-19T06:11:58;7.85;;;7.18;;
64868;SDS011;51349;52.424;10.840;2022-08-19T06:17:00;8.65;;;7.85;;
64868;SDS011;51349;52.424;10.840;2022-08-19T06:22:01;9.35;;;8.52;;
64868;SDS011;51349;52.424;10.840;2022-08-19T06:27:02;8.70;;;7.95;;
64868;SDS011;51349;52.424;10.840;2022-08-19T06:32:05;8.35;;;7.47;;
64868;SDS011;51349;52.424;10.840;2022-08-19T06:37:06;8.43;;;7.63;;
64868;SDS011;51349;52.424;10.840;2022-08-19T06:42:07;8.15;;;7.55;;
64868;SDS011;51349;52.424;10.840;2022-08-19T06:47:13;13.02;;;7.22;;
64868;SDS011;51349;52.424;10.840;2022-08-19T06:52:17;7.93;;;7.32;;
64868;SDS011;51349;52.424;10.840;2022-08-19T06:57:17;9.23;;;7.97;;
64868;SDS011;51349;52.424;10.840;2022-08-19T07:02:18;9.40;;;8.60;;
64868;SDS011;51349;52.424;10.840;2022-08-19T07:07:20;8.35;;;7.55;;
64868;SDS011;51349;52.424;10.840;2022-08-19T07:12:24;8.80;;;7.82;;
64868;SDS011;51349;52.424;10.840;2022-08-19T07:17:27;8.30;;;7.50;;
64868;SDS011;51349;52.424;10.840;2022-08-19T07:22:28;11.13;;;8.00;;
64868;SDS011;51349;52.424;10.840;2022-08-19T07:27:29;9.55;;;8.65;;
64868;SDS011;51349;52.424;10.840;2022-08-19T07:32:30;8.43;;;7.72;;
64868;SDS011;51349;52.424;10.840;2022-08-19T07:37:30;8.88;;;7.88;;
64868;SDS011;51349;52.424;10.840;2022-08-19T07:42:31;9.52;;;8.63;;
64868;SDS011;51349;52.424;10.840;2022-08-19T07:47:32;9.10;;;8.25;;
64868;SDS011;51349;52.424;10.840;2022-08-19T07:52:36;9.88;;;8.93;;
64868;SDS011;51349;52.424;10.840;2022-08-19T07:57:39;10.88;;;8.95;;
64868;SDS011;51349;52.424;10.840;2022-08-19T08:02:40;10.73;;;9.65;;
64868;SDS011;51349;52.424;10.840;2022-08-19T08:07:42;11.15;;;9.15;;
64868;SDS011;51349;52.424;10.840;2022-08-19T08:13:01;9.85;;;8.80;;
64868;SDS011;51349;52.424;10.840;2022-08-19T08:18:05;9.38;;;8.32;;
64868;SDS011;51349;52.424;10.840;2022-08-19T08:23:06;10.27;;;9.27;;
64868;SDS011;51349;52.424;10.840;2022-08-19T08:28:25;9.57;;;8.43;;
64868;SDS011;51349;52.424;10.840;2022-08-19T08:33:28;9.57;;;8.68;;
64868;SDS011;51349;52.424;10.840;2022-08-19T08:38:30;9.60;;;8.68;;
64868;SDS011;51349;52.424;10.840;2022-08-19T08:43:33;10.25;;;9.00;;
64868;SDS011;51349;52.424;10.840;2022-08-19T08:53:42;10.38;;;9.38;;
64868;SDS011;51349;52.424;10.840;2022-08-19T09:03:56;9.73;;;8.93;;
64868;SDS011;51349;52.424;10.840;2022-08-19T09:19:29;9.23;;;8.50;;
64868;SDS011;51349;52.424;10.840;2022-08-19T09:24:30;10.18;;;9.20;;
64868;SDS011;51349;52.424;10.840;2022-08-19T09:29:31;10.05;;;9.05;;
64868;SDS011;51349;52.424;10.840;2022-08-19T09:34:32;10.30;;;9.30;;
64868;SDS011;51349;52.424;10.840;2022-08-19T09:39:33;9.30;;;8.57;;
64868;SDS011;51349;52.424;10.840;2022-08-19T09:44:33;9.00;;;8.30;;
64868;SDS011;51349;52.424;10.840;2022-08-19T09:49:34;9.90;;;9.00;;
64868;SDS011;51349;52.424;10.840;2022-08-19T09:54:35;9.30;;;8.50;;
64868;SDS011;51349;52.424;10.840;2022-08-19T09:59:36;9.80;;;8.90;;
64868;SDS011;51349;52.424;10.840;2022-08-19T10:04:38;9.73;;;8.82;;
64868;SDS011;51349;52.424;10.840;2022-08-19T10:09:58;9.45;;;8.65;;
64868;SDS011;51349;52.424;10.840;2022-08-19T10:15:14;9.02;;;8.23;;
64868;SDS011;51349;52.424;10.840;2022-08-19T10:20:16;9.18;;;8.38;;
64868;SDS011;51349;52.424;10.840;2022-08-19T10:25:17;9.07;;;8.18;;
64868;SDS011;51349;52.424;10.840;2022-08-19T10:30:20;9.27;;;8.40;;
64868;SDS011;51349;52.424;10.840;2022-08-19T10:35:21;8.68;;;7.90;;
64868;SDS011;51349;52.424;10.840;2022-08-19T10:40:22;8.65;;;8.00;;
64868;SDS011;51349;52.424;10.840;2022-08-19T10:45:23;8.07;;;7.43;;
64868;SDS011;51349;52.424;10.840;2022-08-19T10:50:25;7.97;;;7.18;;
64868;SDS011;51349;52.424;10.840;2022-08-19T10:55:44;7.53;;;6.93;;
64868;SDS011;51349;52.424;10.840;2022-08-19T11:01:04;7.68;;;6.97;;
64868;SDS011;51349;52.424;10.840;2022-08-19T11:06:06;7.80;;;7.20;;
64868;SDS011;51349;52.424;10.840;2022-08-19T11:11:07;7.32;;;6.63;;
64868;SDS011;51349;52.424;10.840;2022-08-19T11:16:10;9.15;;;8.25;;
64868;SDS011;51349;52.424;10.840;2022-08-19T11:21:23;9.43;;;7.80;;
64868;SDS011;51349;52.424;10.840;2022-08-19T11:26:28;9.60;;;8.70;;
64868;SDS011;51349;52.424;10.840;2022-08-19T11:31:31;8.93;;;8.05;;
64868;SDS011;51349;52.424;10.840;2022-08-19T11:36:32;7.65;;;6.90;;
64868;SDS011;51349;52.424;10.840;2022-08-19T11:41:34;14.57;;;8.55;;
64868;SDS011;51349;52.424;10.840;2022-08-19T11:46:35;15.07;;;8.18;;
64868;SDS011;51349;52.424;10.840;2022-08-19T11:51:37;10.43;;;7.57;;
64868;SDS011;51349;52.424;10.840;2022-08-19T11:56:38;6.78;;;6.07;;
64868;SDS011;51349;52.424;10.840;2022-08-19T12:01:39;7.03;;;6.43;;
64868;SDS011;51349;52.424;10.840;2022-08-19T12:06:45;8.85;;;7.28;;
64868;SDS011;51349;52.424;10.840;2022-08-19T12:11:46;7.97;;;7.20;;
64868;SDS011;51349;52.424;10.840;2022-08-19T12:16:46;6.90;;;6.30;;
64868;SDS011;51349;52.424;10.840;2022-08-19T12:21:47;6.75;;;6.25;;
64868;SDS011;51349;52.424;10.840;2022-08-19T12:26:51;7.53;;;6.75;;
64868;SDS011;51349;52.424;10.840;2022-08-19T12:31:52;7.15;;;6.45;;
64868;SDS011;51349;52.424;10.840;2022-08-19T12:36:55;6.47;;;5.88;;
64868;SDS011;51349;52.424;10.840;2022-08-19T12:41:56;6.25;;;5.38;;
64868;SDS011;51349;52.424;10.840;2022-08-19T12:46:58;5.68;;;5.28;;
64868;SDS011;51349;52.424;10.840;2022-08-19T12:51:59;6.28;;;5.78;;
64868;SDS011;51349;52.424;10.840;2022-08-19T12:57:04;6.15;;;5.75;;
64868;SDS011;51349;52.424;10.840;2022-08-19T13:02:09;6.13;;;5.55;;
64868;SDS011;51349;52.424;10.840;2022-08-19T13:07:10;5.25;;;4.85;;
64868;SDS011;51349;52.424;10.840;2022-08-19T13:12:13;5.63;;;5.20;;
64868;SDS011;51349;52.424;10.840;2022-08-19T13:17:14;6.30;;;5.57;;
64868;SDS011;51349;52.424;10.840;2022-08-19T13:22:15;5.68;;;5.20;;
64868;SDS011;51349;52.424;10.840;2022-08-19T13:27:16;5.55;;;5.05;;
64868;SDS011;51349;52.424;10.840;2022-08-19T13:32:16;5.28;;;4.78;;
64868;SDS011;51349;52.424;10.840;2022-08-19T13:37:37;6.28;;;5.10;;
64868;SDS011;51349;52.424;10.840;2022-08-19T13:42:44;5.03;;;4.72;;
64868;SDS011;51349;52.424;10.840;2022-08-19T13:47:51;6.10;;;5.60;;
64868;SDS011;51349;52.424;10.840;2022-08-19T13:52:54;6.20;;;5.70;;
64868;SDS011;51349;52.424;10.840;2022-08-19T13:57:57;6.07;;;5.57;;
64868;SDS011;51349;52.424;10.840;2022-08-19T14:02:59;6.05;;;5.50;;
64868;SDS011;51349;52.424;10.840;2022-08-19T14:07:59;5.85;;;5.35;;
64868;SDS011;51349;52.424;10.840;2022-08-19T14:13:06;5.60;;;5.10;;
64868;SDS011;51349;52.424;10.840;2022-08-19T14:18:07;6.05;;;4.63;;
64868;SDS011;51349;52.424;10.840;2022-08-19T14:23:08;5.32;;;5.00;;
64868;SDS011;51349;52.424;10.840;2022-08-19T14:28:09;5.50;;;5.10;;
64868;SDS011;51349;52.424;10.840;2022-08-19T14:33:10;5.53;;;5.13;;
64868;SDS011;51349;52.424;10.840;2022-08-19T14:38:15;5.53;;;5.22;;
64868;SDS011;51349;52.424;10.840;2022-08-19T14:43:18;9.57;;;5.65;;
64868;SDS011;51349;52.424;10.840;2022-08-19T14:48:19;6.03;;;5.63;;
64868;SDS011;51349;52.424;10.840;2022-08-19T14:53:21;5.85;;;4.63;;
64868;SDS011;51349;52.424;10.840;2022-08-19T14:58:22;5.72;;;5.25;;
64868;SDS011;51349;52.424;10.840;2022-08-19T15:03:23;5.55;;;5.07;;
64868;SDS011;51349;52.424;10.840;2022-08-19T15:08:24;5.20;;;4.82;;
64868;SDS011;51349;52.424;10.840;2022-08-19T15:13:26;5.47;;;5.07;;
64868;SDS011;51349;52.424;10.840;2022-08-19T15:18:27;5.28;;;4.90;;
64868;SDS011;51349;52.424;10.840;2022-08-19T15:23:28;5.40;;;5.00;;
64868;SDS011;51349;52.424;10.840;2022-08-19T15:28:29;5.55;;;5.10;;
64868;SDS011;51349;52.424;10.840;2022-08-19T15:33:31;4.78;;;4.50;;
64868;SDS011;51349;52.424;10.840;2022-08-19T15:38:36;5.60;;;5.20;;
64868;SDS011;51349;52.424;10.840;2022-08-19T15:43:37;5.30;;;5.00;;
64868;SDS011;51349;52.424;10.840;2022-08-19T15:48:41;5.00;;;4.70;;
64868;SDS011;51349;52.424;10.840;2022-08-19T15:53:52;5.43;;;5.07;;
64868;SDS011;51349;52.424;10.840;2022-08-19T15:58:54;6.03;;;5.50;;
64868;SDS011;51349;52.424;10.840;2022-08-19T16:04:14;5.28;;;4.80;;
64868;SDS011;51349;52.424;10.840;2022-08-19T16:09:33;5.30;;;5.00;;
64868;SDS011;51349;52.424;10.840;2022-08-19T16:14:36;5.13;;;4.82;;
64868;SDS011;51349;52.424;10.840;2022-08-19T16:19:38;4.80;;;4.50;;
64868;SDS011;51349;52.424;10.840;2022-08-19T16:24:39;4.97;;;4.68;;
64868;SDS011;51349;52.424;10.840;2022-08-19T16:29:40;5.38;;;4.97;;
64868;SDS011;51349;52.424;10.840;2022-08-19T16:34:40;5.57;;;4.70;;
64868;SDS011;51349;52.424;10.840;2022-08-19T16:39:42;5.25;;;4.95;;
64868;SDS011;51349;52.424;10.840;2022-08-19T16:44:43;5.32;;;4.97;;
64868;SDS011;51349;52.424;10.840;2022-08-19T16:49:44;5.40;;;4.65;;
64868;SDS011;51349;52.424;10.840;2022-08-19T16:54:46;5.50;;;5.00;;
64868;SDS011;51349;52.424;10.840;2022-08-19T16:59:47;5.50;;;5.05;;
64868;SDS011;51349;52.424;10.840;2022-08-19T17:04:50;5.43;;;5.03;;
64868;SDS011;51349;52.424;10.840;2022-08-19T17:09:51;5.25;;;4.85;;
64868;SDS011;51349;52.424;10.840;2022-08-19T17:14:52;5.10;;;4.60;;
64868;SDS011;51349;52.424;10.840;2022-08-19T17:19:53;5.70;;;5.20;;
64868;SDS011;51349;52.424;10.840;2022-08-19T17:24:54;9.57;;;5.95;;
64868;SDS011;51349;52.424;10.840;2022-08-19T17:29:55;7.45;;;5.07;;
64868;SDS011;51349;52.424;10.840;2022-08-19T17:34:58;5.72;;;5.32;;
64868;SDS011;51349;52.424;10.840;2022-08-19T17:40:00;5.55;;;5.15;;
64868;SDS011;51349;52.424;10.840;2022-08-19T17:45:05;6.00;;;5.60;;
64868;SDS011;51349;52.424;10.840;2022-08-19T17:50:08;6.18;;;5.65;;
64868;SDS011;51349;52.424;10.840;2022-08-19T17:55:10;5.53;;;5.22;;
64868;SDS011;51349;52.424;10.840;2022-08-19T18:00:10;6.90;;;6.30;;
64868;SDS011;51349;52.424;10.840;2022-08-19T18:05:15;6.75;;;6.25;;
64868;SDS011;51349;52.424;10.840;2022-08-19T18:10:20;5.90;;;5.50;;
64868;SDS011;51349;52.424;10.840;2022-08-19T18:15:22;5.97;;;5.43;;
64868;SDS011;51349;52.424;10.840;2022-08-19T18:20:40;6.50;;;6.10;;
64868;SDS011;51349;52.424;10.840;2022-08-19T18:25:43;6.55;;;6.07;;
64868;SDS011;51349;52.424;10.840;2022-08-19T18:30:44;6.97;;;6.50;;
64868;SDS011;51349;52.424;10.840;2022-08-19T18:35:45;7.15;;;6.57;;
64868;SDS011;51349;52.424;10.840;2022-08-19T18:40:48;7.53;;;7.03;;
64868;SDS011;51349;52.424;10.840;2022-08-19T18:46:07;8.43;;;7.82;;
64868;SDS011;51349;52.424;10.840;2022-08-19T18:51:28;8.43;;;7.40;;
64868;SDS011;51349;52.424;10.840;2022-08-19T18:56:29;7.78;;;7.00;;
64868;SDS011;51349;52.424;10.840;2022-08-19T19:01:34;8.25;;;7.72;;
64868;SDS011;51349;52.424;10.840;2022-08-19T19:06:38;8.23;;;7.53;;
64868;SDS011;51349;52.424;10.840;2022-08-19T19:11:43;8.73;;;7.93;;
64868;SDS011;51349;52.424;10.840;2022-08-19T19:16:48;9.70;;;8.90;;
64868;SDS011;51349;52.424;10.840;2022-08-19T19:21:48;9.35;;;8.68;;
64868;SDS011;51349;52.424;10.840;2022-08-19T19:26:50;9.18;;;8.52;;
64868;SDS011;51349;52.424;10.840;2022-08-19T19:31:52;9.32;;;8.43;;
64868;SDS011;51349;52.424;10.840;2022-08-19T19:36:54;8.50;;;7.90;;
64868;SDS011;51349;52.424;10.840;2022-08-19T19:41:55;9.23;;;8.48;;
64868;SDS011;51349;52.424;10.840;2022-08-19T19:46:56;10.23;;;9.32;;
64868;SDS011;51349;52.424;10.840;2022-08-19T19:51:58;10.20;;;8.50;;
64868;SDS011;51349;52.424;10.840;2022-08-19T19:56:59;8.93;;;8.23;;
64868;SDS011;51349;52.424;10.840;2022-08-19T20:01:59;9.55;;;8.75;;
64868;SDS011;51349;52.424;10.840;2022-08-19T20:07:00;8.90;;;8.20;;
64868;SDS011;51349;52.424;10.840;2022-08-19T20:12:01;10.15;;;9.25;;
64868;SDS011;51349;52.424;10.840;2022-08-19T20:17:02;9.95;;;9.15;;
64868;SDS011;51349;52.424;10.840;2022-08-19T20:22:04;9.50;;;8.80;;
64868;SDS011;51349;52.424;10.840;2022-08-19T20:27:05;9.10;;;8.50;;
64868;SDS011;51349;52.424;10.840;2022-08-19T20:32:06;9.85;;;8.93;;
64868;SDS011;51349;52.424;10.840;2022-08-19T20:37:08;10.20;;;9.18;;
64868;SDS011;51349;52.424;10.840;2022-08-19T20:42:09;10.23;;;9.38;;
64868;SDS011;51349;52.424;10.840;2022-08-19T20:47:09;10.68;;;9.77;;
64868;SDS011;51349;52.424;10.840;2022-08-19T20:52:10;10.52;;;9.73;;
64868;SDS011;51349;52.424;10.840;2022-08-19T20:57:11;11.13;;;10.23;;
64868;SDS011;51349;52.424;10.840;2022-08-19T21:02:11;10.38;;;9.50;;
64868;SDS011;51349;52.424;10.840;2022-08-19T21:07:12;11.23;;;10.13;;
64868;SDS011;51349;52.424;10.840;2022-08-19T21:12:16;10.60;;;9.70;;
64868;SDS011;51349;52.424;10.840;2022-08-19T21:17:18;10.43;;;9.52;;
64868;SDS011;51349;52.424;10.840;2022-08-19T21:22:18;10.65;;;9.85;;
64868;SDS011;51349;52.424;10.840;2022-08-19T21:27:19;10.15;;;9.35;;
64868;SDS011;51349;52.424;10.840;2022-08-19T21:32:19;10.63;;;9.73;;
64868;SDS011;51349;52.424;10.840;2022-08-19T21:37:20;9.93;;;9.13;;
64868;SDS011;51349;52.424;10.840;2022-08-19T21:42:21;9.90;;;9.10;;
64868;SDS011;51349;52.424;10.840;2022-08-19T21:47:22;10.13;;;9.15;;
64868;SDS011;51349;52.424;10.840;2022-08-19T21:52:24;10.45;;;9.45;;
64868;SDS011;51349;52.424;10.840;2022-08-19T21:57:25;10.68;;;9.77;;
64868;SDS011;51349;52.424;10.840;2022-08-19T22:02:26;9.88;;;9.07;;
64868;SDS011;51349;52.424;10.840;2022-08-19T22:07:27;10.20;;;9.40;;
64868;SDS011;51349;52.424;10.840;2022-08-19T22:12:29;10.48;;;9.68;;
64868;SDS011;51349;52.424;10.840;2022-08-19T22:17:31;9.48;;;8.65;;
64868;SDS011;51349;52.424;10.840;2022-08-19T22:22:33;12.07;;;11.02;;
64868;SDS011;51349;52.424;10.840;2022-08-19T22:27:34;13.60;;;12.30;;
64868;SDS011;51349;52.424;10.840;2022-08-19T22:32:35;12.65;;;11.55;;
64868;SDS011;51349;52.424;10.840;2022-08-19T22:37:36;12.98;;;11.85;;
64868;SDS011;51349;52.424;10.840;2022-08-19T22:42:37;12.63;;;11.45;;
64868;SDS011;51349;52.424;10.840;2022-08-19T22:47:38;13.02;;;11.85;;
64868;SDS011;51349;52.424;10.840;2022-08-19T22:52:39;14.00;;;12.60;;
64868;SDS011;51349;52.424;10.840;2022-08-19T22:57:42;14.13;;;12.45;;
64868;SDS011;51349;52.424;10.840;2022-08-19T23:02:43;12.32;;;11.32;;
64868;SDS011;51349;52.424;10.840;2022-08-19T23:07:47;11.75;;;10.75;;
64868;SDS011;51349;52.424;10.840;2022-08-19T23:12:48;11.80;;;10.80;;
64868;SDS011;51349;52.424;10.840;2022-08-19T23:17:49;12.50;;;11.38;;
64868;SDS011;51349;52.424;10.840;2022-08-19T23:22:50;12.63;;;11.50;;
64868;SDS011;51349;52.424;10.840;2022-08-19T23:27:51;11.88;;;10.75;;
64868;SDS011;51349;52.424;10.840;2022-08-19T23:38:39;11.50;;;10.50;;
64868;SDS011;51349;52.424;10.840;2022-08-19T23:43:41;10.63;;;9.73;;
64868;SDS011;51349;52.424;10.840;2022-08-19T23:48:41;11.10;;;10.05;;
64868;SDS011;51349;52.424;10.840;2022-08-19T23:53:45;10.65;;;9.65;;
64868;SDS011;51349;52.424;10.840;2022-08-19T23:58:46;10.65;;;9.75;;
